Time;durP1;ratioP1;P1;durP2;ratioP2;P2;SDS_P1;SDS_P2;PMS_P1;PMS_P2;Temp;Humidity;BMP_temperature;BMP_pressure;BME280_temperature;BME280_humidity;BME280_pressure;Samples;Min_cycle;Max_cycle;Signal;HPM_P1;HPM_P2
2022/04/22 00:04:54;;;;;;;20.75;14.88;;;;;;;;;;10343022;28;20061;-78
2022/04/22 00:09:55;;;;;;;22.00;15.25;;;;;;;;;;10328285;28;20055;-79
2022/04/22 00:14:56;;;;;;;21.50;14.52;;;;;;;;;;10328706;28;20042;-78
2022/04/22 00:19:57;;;;;;;23.03;14.97;;;;;;;;;;10329327;28;20111;-78
2022/04/22 00:24:58;;;;;;;20.50;14.02;;;;;;;;;;10355129;28;20294;-79
2022/04/22 00:29:59;;;;;;;20.42;14.38;;;;;;;;;;10315548;28;20149;-78
2022/04/22 00:35:01;;;;;;;20.70;14.57;;;;;;;;;;10348740;28;20102;-78
2022/04/22 00:40:02;;;;;;;23.55;14.85;;;;;;;;;;10349571;28;20034;-78
2022/04/22 00:45:07;;;;;;;22.77;14.15;;;;;;;;;;10386854;28;20067;-79
2022/04/22 00:50:07;;;;;;;23.10;15.23;;;;;;;;;;10382963;28;20087;-77
2022/04/22 00:55:09;;;;;;;23.95;15.75;;;;;;;;;;10383498;28;20039;-76
2022/04/22 01:00:09;;;;;;;23.10;15.40;;;;;;;;;;10384075;28;20026;-77
2022/04/22 01:10:37;;;;;;;22.30;15.00;;;;;;;;;;10373287;28;20042;-77
2022/04/22 01:15:40;;;;;;;20.75;15.00;;;;;;;;;;10363404;28;20042;-78
2022/04/22 01:20:42;;;;;;;20.20;14.23;;;;;;;;;;10351619;28;20870;-79
2022/04/22 01:25:45;;;;;;;17.77;12.52;;;;;;;;;;10369764;28;20046;-80
2022/04/22 01:30:51;;;;;;;21.13;14.45;;;;;;;;;;10347952;28;20066;-79
2022/04/22 01:35:51;;;;;;;19.63;12.95;;;;;;;;;;10355904;28;20369;-82
2022/04/22 01:40:54;;;;;;;20.83;13.88;;;;;;;;;;10352901;28;20399;-79
2022/04/22 01:45:55;;;;;;;22.43;13.97;;;;;;;;;;10358142;28;20063;-79
2022/04/22 01:50:58;;;;;;;18.80;13.17;;;;;;;;;;10352427;28;20042;-80
2022/04/22 01:55:58;;;;;;;19.38;13.90;;;;;;;;;;10358605;28;20301;-80
2022/04/22 02:01:01;;;;;;;19.17;13.48;;;;;;;;;;10325958;28;20054;-79
2022/04/22 02:06:02;;;;;;;17.85;12.68;;;;;;;;;;10354711;28;20046;-82
2022/04/22 02:11:35;;;;;;;18.42;12.48;;;;;;;;;;10329461;28;20489;-82
2022/04/22 02:16:35;;;;;;;19.92;13.50;;;;;;;;;;10335823;28;20055;-83
2022/04/22 02:21:38;;;;;;;18.73;12.40;;;;;;;;;;10312043;28;20133;-81
2022/04/22 02:32:00;;;;;;;20.23;13.77;;;;;;;;;;10362608;28;20059;-81
2022/04/22 02:37:01;;;;;;;19.33;12.57;;;;;;;;;;10363185;28;20129;-79
2022/04/22 02:47:23;;;;;;;18.35;12.85;;;;;;;;;;10348546;28;20187;-79
2022/04/22 02:52:24;;;;;;;19.60;12.70;;;;;;;;;;10352017;28;20061;-77
2022/04/22 02:57:27;;;;;;;20.58;13.65;;;;;;;;;;10310717;28;20158;-78
2022/04/22 03:02:29;;;;;;;19.50;12.90;;;;;;;;;;10303278;28;20102;-80
2022/04/22 03:07:40;;;;;;;19.63;12.77;;;;;;;;;;10368539;28;20084;-80
2022/04/22 03:12:53;;;;;;;17.98;12.23;;;;;;;;;;10356638;28;20069;-79
2022/04/22 03:18:06;;;;;;;17.00;11.88;;;;;;;;;;10344428;28;20041;-80
2022/04/22 03:23:07;;;;;;;19.17;12.63;;;;;;;;;;10308409;28;20065;-82
2022/04/22 03:28:22;;;;;;;22.27;13.20;;;;;;;;;;10332939;28;20074;-80
2022/04/22 03:33:23;;;;;;;17.30;11.82;;;;;;;;;;10368281;28;20057;-79
2022/04/22 03:38:24;;;;;;;18.52;12.15;;;;;;;;;;10356180;28;20045;-80
2022/04/22 03:43:25;;;;;;;19.50;11.85;;;;;;;;;;10346208;28;20055;-80
2022/04/22 03:48:27;;;;;;;21.73;13.43;;;;;;;;;;10360877;28;20041;-79
2022/04/22 03:53:27;;;;;;;20.25;12.52;;;;;;;;;;10330971;28;20043;-77
2022/04/22 03:58:28;;;;;;;19.38;12.27;;;;;;;;;;10337891;28;20065;-78
2022/04/22 04:03:34;;;;;;;18.23;12.00;;;;;;;;;;10360366;28;20133;-79
2022/04/22 04:08:35;;;;;;;19.85;12.38;;;;;;;;;;10330071;28;20813;-79
2022/04/22 04:23:14;;;;;;;18.80;12.70;;;;;;;;;;10360640;28;20062;-80
2022/04/22 04:24:14;;;;;;;18.48;11.13;;;;;;;;;;10332036;28;20764;-77
2022/04/22 04:29:15;;;;;;;19.30;12.18;;;;;;;;;;10336063;28;20418;-78
2022/04/22 04:34:17;;;;;;;18.98;13.15;;;;;;;;;;10327198;28;20081;-77
2022/04/22 04:39:18;;;;;;;20.08;14.02;;;;;;;;;;10346354;28;20426;-77
2022/04/22 04:44:19;;;;;;;19.07;11.93;;;;;;;;;;10346669;28;20053;-77
2022/04/22 04:49:21;;;;;;;19.15;11.40;;;;;;;;;;10322017;28;20054;-78
2022/04/22 04:54:26;;;;;;;21.77;12.90;;;;;;;;;;10295238;28;20050;-78
2022/04/22 04:59:28;;;;;;;20.25;12.70;;;;;;;;;;10339290;28;20042;-77
2022/04/22 05:04:29;;;;;;;20.40;12.02;;;;;;;;;;10316836;28;20066;-78
2022/04/22 05:09:30;;;;;;;19.65;13.20;;;;;;;;;;10337779;28;20085;-79
2022/04/22 05:14:31;;;;;;;18.40;12.07;;;;;;;;;;10301143;28;20125;-78
2022/04/22 05:19:34;;;;;;;22.20;13.88;;;;;;;;;;10344125;28;20053;-79
2022/04/22 05:24:38;;;;;;;19.60;11.82;;;;;;;;;;10329841;28;20113;-78
2022/04/22 05:35:00;;;;;;;19.67;12.50;;;;;;;;;;10321759;28;20131;-78
2022/04/22 05:40:04;;;;;;;20.35;13.60;;;;;;;;;;10321687;28;20053;-78
2022/04/22 05:45:09;;;;;;;20.20;13.05;;;;;;;;;;10336355;28;20113;-78
2022/04/22 05:50:11;;;;;;;19.30;13.25;;;;;;;;;;10369504;28;20046;-77
2022/04/22 05:55:20;;;;;;;18.83;13.02;;;;;;;;;;10357135;28;20471;-77
2022/04/22 06:00:23;;;;;;;20.50;13.13;;;;;;;;;;10335855;28;20477;-78
2022/04/22 06:05:26;;;;;;;19.23;13.27;;;;;;;;;;10318786;28;20044;-78
2022/04/22 06:10:33;;;;;;;19.33;13.10;;;;;;;;;;10326640;28;20584;-79
2022/04/22 06:15:35;;;;;;;19.05;12.88;;;;;;;;;;10340053;28;20577;-78
2022/04/22 06:20:36;;;;;;;20.13;13.63;;;;;;;;;;10344223;28;20052;-79
2022/04/22 06:25:37;;;;;;;19.67;13.82;;;;;;;;;;10346065;28;20066;-80
2022/04/22 06:30:46;;;;;;;19.30;14.15;;;;;;;;;;10332830;28;20057;-81
2022/04/22 06:35:47;;;;;;;19.45;14.00;;;;;;;;;;10337606;28;20081;-79
2022/04/22 06:46:10;;;;;;;18.15;13.18;;;;;;;;;;10330233;28;20188;-81
2022/04/22 06:51:12;;;;;;;18.60;13.77;;;;;;;;;;10343558;28;20046;-81
2022/04/22 06:56:15;;;;;;;17.98;12.90;;;;;;;;;;10349447;28;20042;-80
2022/04/22 07:01:30;;;;;;;18.20;13.70;;;;;;;;;;10368881;28;20106;-80
2022/04/22 07:06:31;;;;;;;15.98;12.70;;;;;;;;;;10346187;28;20129;-79
2022/04/22 07:11:35;;;;;;;16.95;12.30;;;;;;;;;;10363137;28;20249;-79
2022/04/22 07:16:40;;;;;;;18.98;12.00;;;;;;;;;;10349517;28;20042;-82
2022/04/22 07:21:41;;;;;;;15.45;11.85;;;;;;;;;;10348457;28;20058;-79
2022/04/22 07:26:43;;;;;;;16.45;11.77;;;;;;;;;;10360805;28;20045;-79
2022/04/22 07:31:45;;;;;;;16.58;11.30;;;;;;;;;;10372670;28;20062;-78
2022/04/22 07:36:47;;;;;;;17.05;11.00;;;;;;;;;;10366298;28;20042;-78
2022/04/22 07:41:49;;;;;;;15.55;11.07;;;;;;;;;;10356096;28;20057;-79
2022/04/22 07:46:58;;;;;;;14.43;10.93;;;;;;;;;;10351071;28;20437;-78
2022/04/22 07:51:58;;;;;;;15.90;10.43;;;;;;;;;;10341691;28;20379;-79
2022/04/22 07:57:00;;;;;;;12.68;9.60;;;;;;;;;;10334835;28;20053;-80
2022/04/22 08:02:00;;;;;;;13.80;10.60;;;;;;;;;;10325301;28;20073;-78
2022/04/22 08:07:06;;;;;;;13.23;9.77;;;;;;;;;;10368887;23;20281;-82
2022/04/22 08:12:13;;;;;;;13.93;9.60;;;;;;;;;;10387138;28;20289;-83
2022/04/22 08:17:16;;;;;;;12.43;10.27;;;;;;;;;;10325364;28;20052;-81
2022/04/22 08:22:21;;;;;;;13.63;11.30;;;;;;;;;;10379025;28;20049;-79
2022/04/22 08:27:28;;;;;;;13.77;10.20;;;;;;;;;;10356282;28;20047;-84
2022/04/22 08:33:01;;;;;;;12.23;9.80;;;;;;;;;;10365683;28;20460;-83
2022/04/22 08:38:23;;;;;;;14.10;10.65;;;;;;;;;;10383482;28;20030;-82
2022/04/22 08:43:30;;;;;;;12.30;10.15;;;;;;;;;;10406328;28;20052;-79
2022/04/22 08:54:46;;;;;;;14.60;10.77;;;;;;;;;;10383529;28;20072;-80
2022/04/22 09:00:07;;;;;;;12.75;10.23;;;;;;;;;;10433255;23;20038;-79
2022/04/22 09:05:09;;;;;;;14.43;11.38;;;;;;;;;;10326400;28;20126;-79
2022/04/22 09:10:11;;;;;;;13.20;10.77;;;;;;;;;;10363504;28;20050;-81
2022/04/22 09:15:14;;;;;;;;;;;;;;;;;;10381577;28;20053;-82
2022/04/22 09:20:20;;;;;;;13.65;11.30;;;;;;;;;;10395920;28;19932;-82
2022/04/22 09:25:26;;;;;;;12.82;10.00;;;;;;;;;;10370819;28;20046;-80
2022/04/22 09:30:28;;;;;;;10.77;9.10;;;;;;;;;;10355054;28;20047;-82
2022/04/22 09:42:38;;;;;;;9.57;8.57;;;;;;;;;;10385852;28;20037;-78
2022/04/22 09:46:30;;;;;;;10.73;9.00;;;;;;;;;;10403116;28;20025;-80
2022/04/22 09:51:36;;;;;;;10.45;9.35;;;;;;;;;;10333569;28;20062;-81
2022/04/22 09:56:41;;;;;;;12.55;10.23;;;;;;;;;;10412507;28;20045;-81
2022/04/22 10:01:41;;;;;;;11.60;9.75;;;;;;;;;;10391525;28;20041;-80
2022/04/22 10:06:45;;;;;;;10.77;9.17;;;;;;;;;;10365864;28;20032;-81
2022/04/22 10:11:47;;;;;;;10.53;9.13;;;;;;;;;;10311486;28;20081;-81
2022/04/22 10:16:51;;;;;;;11.18;9.15;;;;;;;;;;10334411;28;20695;-82
2022/04/22 10:21:57;;;;;;;9.23;8.20;;;;;;;;;;10344179;28;20062;-86
2022/04/22 10:27:07;;;;;;;10.07;8.20;;;;;;;;;;10375147;28;20045;-84
2022/04/22 10:33:07;;;;;;;8.85;7.95;;;;;;;;;;10373874;28;20058;-82
2022/04/22 10:38:35;;;;;;;10.15;8.52;;;;;;;;;;10388318;28;20129;-81
2022/04/22 10:43:39;;;;;;;9.07;7.80;;;;;;;;;;10366354;28;20062;-81
2022/04/22 10:48:40;;;;;;;8.13;7.18;;;;;;;;;;10383279;28;20124;-81
2022/04/22 10:53:47;;;;;;;8.07;7.28;;;;;;;;;;10355056;28;20116;-81
2022/04/22 10:58:47;;;;;;;10.10;8.27;;;;;;;;;;10331621;28;20093;-82
2022/04/22 11:03:57;;;;;;;9.68;7.90;;;;;;;;;;10350882;28;20215;-80
2022/04/22 11:09:00;;;;;;;14.20;8.25;;;;;;;;;;10349487;28;20046;-81
2022/04/22 11:14:26;;;;;;;9.50;8.50;;;;;;;;;;10294411;28;20084;-82
2022/04/22 11:19:56;;;;;;;9.95;8.95;;;;;;;;;;10360284;28;20629;-83
2022/04/22 11:25:02;;;;;;;10.82;8.15;;;;;;;;;;10407247;28;20038;-84
2022/04/22 11:30:12;;;;;;;10.00;8.82;;;;;;;;;;10319584;28;20038;-82
2022/04/22 11:35:25;;;;;;;9.43;8.32;;;;;;;;;;10363877;28;20037;-83
2022/04/22 11:40:40;;;;;;;9.07;7.97;;;;;;;;;;10353529;28;20030;-84
2022/04/22 11:46:05;;;;;;;9.98;8.98;;;;;;;;;;10359696;28;20050;-84
2022/04/22 11:51:05;;;;;;;7.97;7.18;;;;;;;;;;10367334;28;20099;-83
2022/04/22 11:56:31;;;;;;;8.25;7.10;;;;;;;;;;10381394;28;20060;-85
2022/04/22 12:13:15;;;;;;;8.20;5.75;;;;;;;;;;10408835;28;20038;-83
2022/04/22 12:24:17;;;;;;;9.13;6.43;;;;;;;;;;10410127;28;20030;-84
2022/04/22 12:30:43;;;;;;;7.00;6.00;;;;;;;;;;10369926;28;20092;-84
2022/04/22 12:36:20;;;;;;;7.38;6.07;;;;;;;;;;10162416;28;20451;-82
2022/04/22 12:41:43;;;;;;;6.85;6.15;;;;;;;;;;10427058;23;20144;-84
2022/04/22 12:52:50;;;;;;;6.75;6.15;;;;;;;;;;10375719;28;20054;-85
2022/04/22 12:58:40;;;;;;;9.50;6.93;;;;;;;;;;10419212;28;20077;-85
2022/04/22 13:09:44;;;;;;;6.23;5.63;;;;;;;;;;10408484;28;20049;-87
2022/04/22 13:15:36;;;;;;;6.70;6.10;;;;;;;;;;10407518;28;20303;-84
2022/04/22 13:21:09;;;;;;;6.28;5.68;;;;;;;;;;10363438;28;20042;-85
2022/04/22 13:27:08;;;;;;;6.38;5.78;;;;;;;;;;10384328;28;20053;-84
2022/04/22 13:43:31;;;;;;;;;;;;;;;;;;10646249;22;20052;-84
2022/04/22 13:54:53;;;;;;;7.25;6.55;;;;;;;;;;10355407;28;20061;-84
2022/04/22 14:00:30;;;;;;;7.57;6.22;;;;;;;;;;10390876;28;20056;-87
2022/04/22 14:11:37;;;;;;;7.93;7.20;;;;;;;;;;12281281;23;20053;-79
2022/04/22 14:16:38;;;;;;;7.77;6.97;;;;;;;;;;10403505;28;20553;-76
2022/04/22 14:21:40;;;;;;;8.43;7.00;;;;;;;;;;10407929;28;20053;-75
2022/04/22 14:26:40;;;;;;;7.33;6.00;;;;;;;;;;10397276;28;20073;-75
2022/04/22 14:31:41;;;;;;;9.43;7.18;;;;;;;;;;10374195;28;20049;-74
2022/04/22 14:36:42;;;;;;;8.17;7.37;;;;;;;;;;10414133;28;20068;-76
2022/04/22 14:41:53;;;;;;;8.30;7.45;;;;;;;;;;10409668;28;20276;-84
2022/04/22 14:47:00;;;;;;;7.85;7.05;;;;;;;;;;10372121;28;20043;-82
2022/04/22 14:52:20;;;;;;;7.07;6.38;;;;;;;;;;10363616;28;20057;-82
2022/04/22 14:58:16;;;;;;;8.18;7.38;;;;;;;;;;10342639;28;20052;-83
2022/04/22 15:03:21;;;;;;;7.88;7.07;;;;;;;;;;10407789;28;20048;-82
2022/04/22 15:08:47;;;;;;;8.30;7.18;;;;;;;;;;10354402;28;20041;-78
2022/04/22 15:13:47;;;;;;;9.27;8.38;;;;;;;;;;10405797;28;20069;-77
2022/04/22 15:24:10;;;;;;;11.73;10.52;;;;;;;;;;10381121;28;20382;-78
2022/04/22 15:29:12;;;;;;;11.52;9.60;;;;;;;;;;10388690;28;20060;-74
2022/04/22 15:34:13;;;;;;;9.63;8.60;;;;;;;;;;10405523;28;20493;-75
2022/04/22 15:39:14;;;;;;;11.10;9.88;;;;;;;;;;10412575;28;20049;-74
2022/04/22 15:44:24;;;;;;;11.88;9.95;;;;;;;;;;10390598;28;20588;-73
2022/04/22 15:49:25;;;;;;;11.18;10.13;;;;;;;;;;10384305;28;20076;-75
2022/04/22 15:54:25;;;;;;;11.25;10.07;;;;;;;;;;10390852;28;20069;-75
2022/04/22 15:59:27;;;;;;;11.93;10.48;;;;;;;;;;10403076;28;20048;-75
2022/04/22 16:04:28;;;;;;;11.00;9.90;;;;;;;;;;10411162;28;20064;-80
2022/04/22 16:09:28;;;;;;;12.27;10.93;;;;;;;;;;10570199;23;20057;-77
2022/04/22 16:19:52;;;;;;;12.88;11.30;;;;;;;;;;10415607;28;20050;-75
2022/04/22 16:24:52;;;;;;;13.65;11.45;;;;;;;;;;10407746;28;20458;-76
2022/04/22 16:29:52;;;;;;;14.60;11.93;;;;;;;;;;10390739;28;20054;-76
2022/04/22 16:34:53;;;;;;;14.45;12.18;;;;;;;;;;10414799;28;20054;-75
2022/04/22 16:39:54;;;;;;;14.93;12.30;;;;;;;;;;10410629;28;20042;-76
2022/04/22 16:45:28;;;;;;;14.50;12.27;;;;;;;;;;10419391;28;20032;-84
2022/04/22 16:51:53;;;;;;;15.90;14.18;;;;;;;;;;10262950;28;20282;-82
2022/04/22 16:57:02;;;;;;;16.30;13.98;;;;;;;;;;10409309;28;20056;-81
2022/04/22 17:02:54;;;;;;;14.93;12.82;;;;;;;;;;10425879;28;20093;-79
2022/04/22 17:07:57;;;;;;;16.13;14.05;;;;;;;;;;10404492;28;20041;-82
2022/04/22 17:13:27;;;;;;;16.65;13.52;;;;;;;;;;10184853;28;20064;-82
2022/04/22 17:23:57;;;;;;;17.98;14.27;;;;;;;;;;10362133;28;20103;-78
2022/04/22 17:28:57;;;;;;;15.25;13.23;;;;;;;;;;10379399;28;20042;-79
2022/04/22 17:33:59;;;;;;;19.75;14.90;;;;;;;;;;10342435;28;20137;-79
2022/04/22 17:38:59;;;;;;;16.90;14.13;;;;;;;;;;10364154;28;20080;-77
2022/04/22 17:44:06;;;;;;;18.10;14.30;;;;;;;;;;10347327;28;20049;-78
2022/04/22 17:49:16;;;;;;;17.27;13.63;;;;;;;;;;10359272;28;20049;-80
2022/04/22 17:54:24;;;;;;;18.33;14.00;;;;;;;;;;10371607;28;20046;-78
2022/04/22 17:59:24;;;;;;;21.02;15.48;;;;;;;;;;10366015;28;20052;-78
2022/04/22 18:04:29;;;;;;;21.33;14.32;;;;;;;;;;10330881;28;20046;-80
2022/04/22 18:09:29;;;;;;;18.20;14.70;;;;;;;;;;10348163;28;20569;-79
2022/04/22 18:19:52;;;;;;;20.45;16.67;;;;;;;;;;10339589;28;20057;-81
2022/04/22 18:24:53;;;;;;;18.60;14.27;;;;;;;;;;10321567;28;20081;-78
2022/04/22 18:29:57;;;;;;;18.42;14.75;;;;;;;;;;10338865;28;20064;-80
2022/04/22 18:35:00;;;;;;;16.23;13.52;;;;;;;;;;10368418;28;20061;-80
2022/04/22 18:40:02;;;;;;;19.00;14.73;;;;;;;;;;10375419;28;20064;-78
2022/04/22 18:45:03;;;;;;;15.95;13.52;;;;;;;;;;10376784;28;20055;-79
2022/04/22 18:50:05;;;;;;;18.88;15.18;;;;;;;;;;10356038;28;20073;-72
2022/04/22 18:55:11;;;;;;;18.08;14.63;;;;;;;;;;10434500;28;20038;-80
2022/04/22 19:00:13;;;;;;;18.83;14.65;;;;;;;;;;10398515;28;20049;-81
2022/04/22 19:05:13;;;;;;;18.17;13.68;;;;;;;;;;10403413;28;20050;-79
2022/04/22 19:10:15;;;;;;;18.23;14.43;;;;;;;;;;10397657;28;20054;-78
2022/04/22 19:15:15;;;;;;;18.58;14.25;;;;;;;;;;10383592;28;20115;-77
2022/04/22 19:20:24;;;;;;;18.60;14.80;;;;;;;;;;10374415;28;20123;-78
2022/04/22 19:25:32;;;;;;;16.15;12.90;;;;;;;;;;10378102;28;20053;-78
2022/04/22 19:30:33;;;;;;;19.08;14.38;;;;;;;;;;10380909;28;20465;-79
2022/04/22 19:35:39;;;;;;;21.08;14.27;;;;;;;;;;10372634;28;20069;-78
2022/04/22 19:40:47;;;;;;;16.55;13.93;;;;;;;;;;10369014;28;20049;-80
2022/04/22 19:45:49;;;;;;;18.70;14.38;;;;;;;;;;10331757;28;20083;-77
2022/04/22 19:51:12;;;;;;;;;;;;;;;;;;10348888;28;20058;-77
2022/04/22 19:56:15;;;;;;;19.10;15.15;;;;;;;;;;10382218;28;20353;-77
2022/04/22 20:01:15;;;;;;;19.90;15.10;;;;;;;;;;10367792;28;20050;-78
2022/04/22 20:06:19;;;;;;;19.20;13.15;;;;;;;;;;10328733;28;20132;-77
2022/04/22 20:11:21;;;;;;;15.98;13.88;;;;;;;;;;10370742;28;20053;-78
2022/04/22 20:16:24;;;;;;;19.75;14.18;;;;;;;;;;10361050;28;20156;-78
2022/04/22 20:21:25;;;;;;;21.40;14.45;;;;;;;;;;10377598;28;20064;-77
2022/04/22 20:26:28;;;;;;;17.83;13.93;;;;;;;;;;10339365;28;20041;-78
2022/04/22 20:31:33;;;;;;;17.30;13.52;;;;;;;;;;10377520;28;20089;-77
2022/04/22 20:41:58;;;;;;;16.13;12.90;;;;;;;;;;10385213;28;20049;-79
2022/04/22 20:46:58;;;;;;;16.50;13.35;;;;;;;;;;10342799;28;20046;-77
2022/04/22 20:51:59;;;;;;;19.27;14.27;;;;;;;;;;10351752;28;20069;-77
2022/04/22 20:56:59;;;;;;;14.88;12.23;;;;;;;;;;10350967;28;20158;-77
2022/04/22 21:01:59;;;;;;;17.33;14.48;;;;;;;;;;10378684;28;20064;-78
2022/04/22 21:07:00;;;;;;;16.42;13.25;;;;;;;;;;10384989;28;20030;-78
2022/04/22 21:12:03;;;;;;;14.40;12.10;;;;;;;;;;10340365;28;20498;-79
2022/04/22 21:17:04;;;;;;;15.38;12.95;;;;;;;;;;10340460;28;20129;-78
2022/04/22 21:22:07;;;;;;;13.68;12.05;;;;;;;;;;10317226;28;20126;-80
2022/04/22 21:27:34;;;;;;;14.25;12.35;;;;;;;;;;10323557;28;20105;-80
2022/04/22 21:32:39;;;;;;;15.45;12.95;;;;;;;;;;10333411;28;20059;-79
2022/04/22 21:37:44;;;;;;;14.20;11.95;;;;;;;;;;10318718;28;20078;-80
2022/04/22 21:42:44;;;;;;;14.43;11.68;;;;;;;;;;10307018;28;20050;-78
2022/04/22 21:47:45;;;;;;;14.25;12.55;;;;;;;;;;10312499;28;20078;-79
2022/04/22 21:52:45;;;;;;;12.85;10.88;;;;;;;;;;10348665;28;20058;-78
2022/04/22 21:57:52;;;;;;;13.55;11.88;;;;;;;;;;10334586;28;20049;-78
2022/04/22 22:02:52;;;;;;;13.18;10.88;;;;;;;;;;10329447;28;20070;-77
2022/04/22 22:07:59;;;;;;;13.50;11.53;;;;;;;;;;10334267;28;20105;-79
2022/04/22 22:13:02;;;;;;;10.48;8.85;;;;;;;;;;10338281;28;20471;-79
2022/04/22 22:18:11;;;;;;;12.25;10.95;;;;;;;;;;10350228;28;20069;-78
2022/04/22 22:23:14;;;;;;;12.57;10.00;;;;;;;;;;10314217;28;20062;-79
2022/04/22 22:28:18;;;;;;;12.13;10.75;;;;;;;;;;10329250;28;20123;-79
2022/04/22 22:33:28;;;;;;;11.05;9.88;;;;;;;;;;10294827;28;20054;-77
2022/04/22 22:38:29;;;;;;;10.05;9.05;;;;;;;;;;10364365;28;20061;-78
2022/04/22 22:43:31;;;;;;;10.27;9.10;;;;;;;;;;10331569;28;20141;-81
2022/04/22 22:48:33;;;;;;;11.23;9.88;;;;;;;;;;10365647;28;20046;-80
2022/04/22 22:53:34;;;;;;;10.82;9.43;;;;;;;;;;10319910;28;20064;-78
2022/04/22 22:58:38;;;;;;;12.60;9.65;;;;;;;;;;10360144;28;20041;-79
2022/04/22 23:03:41;;;;;;;11.07;8.63;;;;;;;;;;10373134;28;20056;-79
2022/04/22 23:08:43;;;;;;;10.82;8.93;;;;;;;;;;10349443;28;20053;-79
2022/04/22 23:14:11;;;;;;;11.38;9.18;;;;;;;;;;10353037;28;20057;-78
2022/04/22 23:19:34;;;;;;;10.25;8.52;;;;;;;;;;10304016;28;20093;-79
2022/04/22 23:24:40;;;;;;;11.93;8.75;;;;;;;;;;10368079;28;20049;-79
2022/04/22 23:30:04;;;;;;;10.10;8.27;;;;;;;;;;10382892;28;20493;-81
2022/04/22 23:35:26;;;;;;;10.37;8.37;;;;;;;;;;10372957;28;20073;-78
2022/04/22 23:40:27;;;;;;;10.43;9.10;;;;;;;;;;10359814;28;20188;-77
2022/04/22 23:45:35;;;;;;;10.30;8.85;;;;;;;;;;10346226;28;20061;-78
2022/04/22 23:51:26;;;;;;;10.32;8.25;;;;;;;;;;10372449;28;20979;-81
2022/04/22 23:56:26;;;;;;;11.38;9.10;;;;;;;;;;10375003;28;20062;-80
